createdAt,value
2023-03-22T00:02:01.717Z,13.39
2023-03-22T00:04:28.608Z,13.36
2023-03-22T00:06:55.619Z,13.37
2023-03-22T00:09:22.506Z,13.39
2023-03-22T00:11:51.193Z,13.43
2023-03-22T00:14:18.439Z,13.45
2023-03-22T00:16:46.577Z,13.44
2023-03-22T00:19:13.440Z,13.41
2023-03-22T00:21:40.322Z,13.44
2023-03-22T00:24:07.562Z,13.38
2023-03-22T00:26:36.209Z,13.41
2023-03-22T00:29:03.119Z,13.41
2023-03-22T00:31:29.994Z,13.40
2023-03-22T00:33:57.700Z,13.41
2023-03-22T00:36:24.613Z,13.38
2023-03-22T00:38:52.271Z,13.35
2023-03-22T00:41:21.144Z,13.34
2023-03-22T00:43:48.510Z,13.41
2023-03-22T00:46:16.208Z,13.42
2023-03-22T00:48:43.365Z,13.40
2023-03-22T00:51:10.767Z,13.38
2023-03-22T00:53:37.654Z,13.40
2023-03-22T00:56:05.233Z,13.39
2023-03-22T00:58:32.371Z,13.41
2023-03-22T01:00:59.394Z,13.36
2023-03-22T01:03:26.361Z,13.33
2023-03-22T01:05:55.754Z,13.39
2023-03-22T01:08:23.337Z,13.42
2023-03-22T01:10:50.630Z,13.44
2023-03-22T01:13:18.100Z,13.45
2023-03-22T01:15:45.245Z,13.43
2023-03-22T01:18:12.194Z,13.44
2023-03-22T01:20:39.368Z,13.44
2023-03-22T01:23:06.529Z,13.44
2023-03-22T01:25:33.676Z,13.42
2023-03-22T01:28:02.999Z,13.43
2023-03-22T01:30:30.204Z,13.45
2023-03-22T01:32:57.142Z,13.45
2023-03-22T01:35:24.263Z,13.46
2023-03-22T01:37:51.107Z,13.41
2023-03-22T01:40:17.951Z,13.44
2023-03-22T01:42:45.041Z,13.45
2023-03-22T01:45:14.941Z,13.41
2023-03-22T01:47:43.153Z,13.41
2023-03-22T01:50:10.338Z,13.38
2023-03-22T01:52:37.863Z,13.40
2023-03-22T01:55:05.384Z,13.38
2023-03-22T01:57:33.761Z,13.32
2023-03-22T02:00:00.908Z,13.35
2023-03-22T02:02:31.159Z,13.33
2023-03-22T02:04:58.349Z,13.32
2023-03-22T02:07:28.226Z,13.32
2023-03-22T02:09:55.077Z,13.35
2023-03-22T02:12:22.283Z,13.34
2023-03-22T02:14:52.175Z,13.31
2023-03-22T02:17:22.080Z,13.22
2023-03-22T02:19:52.234Z,13.24
2023-03-22T02:22:22.072Z,13.24
2023-03-22T02:24:51.957Z,13.23
2023-03-22T02:27:22.145Z,13.23
2023-03-22T02:29:52.786Z,13.28
2023-03-22T02:32:22.677Z,13.31
2023-03-22T02:34:54.152Z,13.26
2023-03-22T02:37:24.267Z,13.30
2023-03-22T02:39:54.379Z,13.32
2023-03-22T02:42:27.779Z,13.27
2023-03-22T02:44:54.977Z,13.28
2023-03-22T02:47:25.694Z,13.23
2023-03-22T02:49:57.117Z,13.23
2023-03-22T02:52:27.106Z,13.29
2023-03-22T02:54:57.334Z,13.29
2023-03-22T02:57:27.218Z,13.22
2023-03-22T02:59:55.846Z,13.23
2023-03-22T03:02:23.751Z,13.21
2023-03-22T03:04:51.580Z,13.23
2023-03-22T03:07:22.149Z,13.24
2023-03-22T03:09:49.403Z,13.31
2023-03-22T03:12:19.765Z,13.26
2023-03-22T03:14:46.620Z,13.26
2023-03-22T03:17:14.743Z,13.27
2023-03-22T03:19:47.104Z,13.22
2023-03-22T03:22:16.941Z,13.24
2023-03-22T03:24:49.320Z,13.25
2023-03-22T03:27:17.865Z,13.21
2023-03-22T03:29:49.991Z,13.17
2023-03-22T03:32:19.941Z,13.16
2023-03-22T03:34:51.633Z,13.14
2023-03-22T03:37:22.219Z,13.18
2023-03-22T03:39:53.210Z,13.18
2023-03-22T03:42:22.172Z,13.19
2023-03-22T03:44:49.261Z,13.18
2023-03-22T03:47:16.486Z,13.19
2023-03-22T03:49:43.333Z,13.22
2023-03-22T03:52:10.760Z,13.21
2023-03-22T03:54:37.563Z,13.18
2023-03-22T03:57:04.374Z,13.14
2023-03-22T03:59:31.223Z,13.13
2023-03-22T04:01:58.125Z,13.15
2023-03-22T04:04:27.387Z,13.14
2023-03-22T04:06:56.996Z,13.09
2023-03-22T04:09:24.564Z,13.03
2023-03-22T04:11:51.823Z,13.06
2023-03-22T04:14:18.887Z,13.07
2023-03-22T04:16:45.772Z,13.07
2023-03-22T04:19:13.027Z,13.06
2023-03-22T04:21:39.859Z,13.03
2023-03-22T04:24:06.933Z,13.00
2023-03-22T04:26:33.966Z,13.00
2023-03-22T04:29:03.155Z,13.01
2023-03-22T04:31:31.104Z,13.00
2023-03-22T04:34:00.656Z,13.02
2023-03-22T04:36:31.520Z,13.04
2023-03-22T04:38:58.451Z,13.05
2023-03-22T04:41:25.460Z,13.01
2023-03-22T04:43:52.259Z,13.00
2023-03-22T04:46:21.563Z,13.00
2023-03-22T04:48:48.629Z,13.00
2023-03-22T04:51:15.893Z,13.00
2023-03-22T04:53:42.835Z,12.97
2023-03-22T04:56:11.163Z,12.94
2023-03-22T04:58:40.574Z,12.95
2023-03-22T05:01:08.278Z,12.92
2023-03-22T05:03:35.346Z,12.91
2023-03-22T05:06:02.798Z,12.89
2023-03-22T05:08:30.773Z,12.91
2023-03-22T05:10:59.352Z,12.91
2023-03-22T05:13:27.469Z,12.91
2023-03-22T05:15:54.969Z,12.86
2023-03-22T05:18:22.451Z,12.84
2023-03-22T05:20:49.305Z,12.81
2023-03-22T05:23:19.400Z,12.79
2023-03-22T05:25:47.079Z,12.79
2023-03-22T05:28:14.582Z,12.76
2023-03-22T05:30:42.237Z,12.76
2023-03-22T05:33:09.721Z,12.77
2023-03-22T05:35:37.507Z,12.78
2023-03-22T05:38:04.679Z,12.75
2023-03-22T05:40:31.772Z,12.75
2023-03-22T05:42:58.661Z,12.74
2023-03-22T05:45:25.982Z,12.77
2023-03-22T05:47:53.465Z,12.76
2023-03-22T05:50:21.778Z,12.74
2023-03-22T05:52:49.176Z,12.75
2023-03-22T05:55:18.052Z,12.75
2023-03-22T05:57:51.613Z,12.74
2023-03-22T06:00:19.346Z,12.75
2023-03-22T06:02:47.533Z,12.77
2023-03-22T06:05:15.296Z,12.74
2023-03-22T06:07:42.627Z,12.74
2023-03-22T06:10:11.612Z,12.74
2023-03-22T06:12:38.543Z,12.67
2023-03-22T06:15:05.899Z,12.69
2023-03-22T06:17:32.908Z,12.70
2023-03-22T06:19:59.921Z,12.74
2023-03-22T06:22:26.824Z,12.78
2023-03-22T06:24:53.697Z,12.75
2023-03-22T06:27:20.577Z,12.72
2023-03-22T06:29:51.128Z,12.77
2023-03-22T06:32:18.054Z,12.77
2023-03-22T06:34:45.043Z,12.79
2023-03-22T06:37:11.896Z,12.74
2023-03-22T06:39:38.736Z,12.74
2023-03-22T06:42:05.989Z,12.77
2023-03-22T06:44:32.879Z,12.80
2023-03-22T06:46:59.738Z,12.78
2023-03-22T06:49:28.142Z,12.79
2023-03-22T06:51:55.091Z,12.85
2023-03-22T06:54:22.112Z,12.90
2023-03-22T06:56:49.132Z,12.90
2023-03-22T06:59:16.026Z,12.89
2023-03-22T07:01:43.110Z,12.89
2023-03-22T07:04:10.291Z,12.92
2023-03-22T07:06:37.249Z,12.96
2023-03-22T07:09:04.137Z,13.01
2023-03-22T07:11:31.009Z,13.05
2023-03-22T07:13:58.374Z,13.08
2023-03-22T07:16:25.424Z,13.07
2023-03-22T07:18:52.382Z,13.08
2023-03-22T07:21:19.303Z,13.10
2023-03-22T07:23:46.183Z,13.10
2023-03-22T07:26:13.733Z,13.11
2023-03-22T07:28:44.808Z,13.10
2023-03-22T07:31:12.232Z,13.08
2023-03-22T07:33:39.590Z,13.10
2023-03-22T07:36:07.331Z,13.09
2023-03-22T07:38:34.788Z,13.08
2023-03-22T07:41:01.810Z,13.10
2023-03-22T07:43:28.744Z,13.12
2023-03-22T07:45:55.857Z,13.12
2023-03-22T07:48:23.312Z,13.12
2023-03-22T07:50:50.539Z,13.16
2023-03-22T07:53:17.603Z,13.21
2023-03-22T07:55:44.477Z,13.25
2023-03-22T07:58:11.333Z,13.31
2023-03-22T08:00:38.531Z,13.26
2023-03-22T08:03:06.197Z,13.26
2023-03-22T08:05:33.307Z,13.34
2023-03-22T08:08:00.272Z,13.37
2023-03-22T08:10:27.195Z,13.36
2023-03-22T08:12:54.281Z,13.41
2023-03-22T08:15:22.635Z,13.43
2023-03-22T08:17:50.268Z,13.41
2023-03-22T08:20:18.698Z,13.43
2023-03-22T08:22:46.158Z,13.49
2023-03-22T08:25:13.135Z,13.51
2023-03-22T08:27:40.263Z,13.54
2023-03-22T08:30:07.854Z,13.54
2023-03-22T08:32:35.191Z,13.50
2023-03-22T08:35:02.202Z,13.46
2023-03-22T08:37:29.211Z,13.46
2023-03-22T08:39:56.741Z,13.51
2023-03-22T08:42:23.663Z,13.57
2023-03-22T08:44:52.631Z,13.64
2023-03-22T08:47:19.624Z,13.69
2023-03-22T08:49:46.603Z,13.65
2023-03-22T08:52:13.822Z,13.63
2023-03-22T08:54:41.669Z,13.63
2023-03-22T08:57:09.697Z,13.62
2023-03-22T08:59:36.706Z,13.64
2023-03-22T09:02:05.507Z,13.59
2023-03-22T09:04:32.675Z,13.54
2023-03-22T09:06:59.655Z,13.54
2023-03-22T09:09:26.612Z,13.60
2023-03-22T09:11:53.499Z,13.64
2023-03-22T09:14:20.428Z,13.67
2023-03-22T09:16:47.912Z,13.65
2023-03-22T09:19:14.856Z,13.61
2023-03-22T09:21:41.812Z,13.63
2023-03-22T09:24:09.065Z,13.65
2023-03-22T09:26:37.433Z,13.76
2023-03-22T09:29:04.676Z,13.83
2023-03-22T09:31:31.731Z,13.89
2023-03-22T09:33:59.865Z,14.01
2023-03-22T09:36:26.795Z,14.14
2023-03-22T09:38:54.180Z,14.23
2023-03-22T09:41:21.846Z,14.34
2023-03-22T09:43:52.187Z,14.45
2023-03-22T09:46:24.859Z,14.55
2023-03-22T09:48:52.253Z,14.58
2023-03-22T09:51:27.501Z,14.70
2023-03-22T09:53:54.909Z,14.81
2023-03-22T09:56:25.310Z,14.83
2023-03-22T09:58:57.137Z,14.85
2023-03-22T10:01:28.800Z,14.78
2023-03-22T10:03:57.820Z,14.74
2023-03-22T10:06:28.942Z,14.76
2023-03-22T10:08:58.113Z,14.76
2023-03-22T10:11:26.654Z,14.78
2023-03-22T10:13:56.985Z,14.76
2023-03-22T10:16:27.451Z,14.76
2023-03-22T10:18:57.461Z,14.70
2023-03-22T10:21:24.820Z,14.60
2023-03-22T10:23:56.997Z,14.57
2023-03-22T10:26:29.781Z,14.59
2023-03-22T10:29:02.120Z,14.63
2023-03-22T10:31:30.808Z,14.61
2023-03-22T10:34:00.216Z,14.61
2023-03-22T10:36:31.448Z,14.63
2023-03-22T10:39:02.353Z,14.68
2023-03-22T10:41:30.424Z,14.75
2023-03-22T10:43:59.239Z,14.76
2023-03-22T10:46:29.080Z,14.84
2023-03-22T10:48:59.306Z,14.94
2023-03-22T10:51:29.403Z,15.04
2023-03-22T10:53:58.832Z,15.16
2023-03-22T10:56:26.055Z,15.30
2023-03-22T10:58:55.232Z,15.45
2023-03-22T11:01:26.050Z,15.59
2023-03-22T11:03:55.914Z,15.73
2023-03-22T11:06:26.532Z,15.82
2023-03-22T11:08:57.799Z,15.81
2023-03-22T11:11:27.996Z,15.83
2023-03-22T11:14:02.707Z,15.86
2023-03-22T11:16:31.365Z,15.93
2023-03-22T11:19:01.600Z,15.92
2023-03-22T11:21:30.939Z,16.02
2023-03-22T11:24:01.776Z,16.08
2023-03-22T11:26:30.580Z,16.10
2023-03-22T11:29:03.104Z,16.01
2023-03-22T11:31:48.056Z,16.05
2023-03-22T11:34:18.102Z,16.11
2023-03-22T11:39:16.111Z,16.24
2023-03-22T11:41:45.708Z,16.27
2023-03-22T11:44:14.185Z,16.26
2023-03-22T11:46:49.388Z,16.23
2023-03-22T11:49:18.274Z,16.27
2023-03-22T11:51:46.273Z,16.31
2023-03-22T11:54:17.306Z,16.36
2023-03-22T11:56:46.827Z,16.44
2023-03-22T11:59:14.167Z,16.47
2023-03-22T12:01:44.550Z,16.56
2023-03-22T12:04:14.745Z,16.67
2023-03-22T12:06:43.160Z,16.73
2023-03-22T12:09:17.844Z,16.76
2023-03-22T12:11:47.811Z,16.80
2023-03-22T12:14:16.269Z,16.79
2023-03-22T12:16:46.826Z,16.85
2023-03-22T12:19:20.351Z,16.89
2023-03-22T12:21:49.541Z,16.91
2023-03-22T12:24:25.150Z,16.92
2023-03-22T12:26:54.685Z,16.91
2023-03-22T12:29:22.094Z,16.96
2023-03-22T12:31:57.523Z,16.99
2023-03-22T12:34:29.622Z,16.98
2023-03-22T12:36:57.964Z,16.99
2023-03-22T12:39:25.564Z,16.99
2023-03-22T12:41:54.753Z,16.96
2023-03-22T12:44:23.563Z,16.94
2023-03-22T12:46:54.291Z,16.88
2023-03-22T12:49:22.212Z,16.91
2023-03-22T12:51:50.918Z,16.94
2023-03-22T12:54:20.032Z,16.91
2023-03-22T12:56:47.084Z,16.91
2023-03-22T12:59:17.885Z,16.95
2023-03-22T13:01:51.411Z,16.98
2023-03-22T13:04:21.772Z,16.98
2023-03-22T13:06:52.023Z,17.04
2023-03-22T13:09:20.929Z,17.09
2023-03-22T13:11:49.834Z,17.03
2023-03-22T13:14:20.919Z,17.02
2023-03-22T13:16:50.523Z,17.01
2023-03-22T13:19:19.447Z,17.02
2023-03-22T13:21:49.169Z,17.06
2023-03-22T13:24:18.594Z,17.10
2023-03-22T13:26:49.790Z,17.15
2023-03-22T13:29:19.236Z,17.14
2023-03-22T13:31:55.475Z,17.13
2023-03-22T13:34:32.178Z,17.10
2023-03-22T13:37:04.187Z,17.05
2023-03-22T13:39:35.066Z,17.04
2023-03-22T13:42:07.414Z,17.04
2023-03-22T13:44:37.723Z,16.99
2023-03-22T13:47:08.180Z,17.01
2023-03-22T13:49:39.007Z,16.97
2023-03-22T13:52:07.824Z,16.92
2023-03-22T13:54:41.149Z,16.84
2023-03-22T13:57:11.368Z,16.78
2023-03-22T13:59:49.123Z,16.69
2023-03-22T14:02:24.802Z,16.65
2023-03-22T14:04:56.494Z,16.54
2023-03-22T14:07:26.734Z,16.46
2023-03-22T14:09:56.215Z,16.38
2023-03-22T14:12:28.301Z,16.30
2023-03-22T14:14:57.781Z,16.32
2023-03-22T14:17:28.047Z,16.30
2023-03-22T14:19:56.982Z,16.25
2023-03-22T14:52:13.568Z,16.46
2023-03-22T14:54:43.230Z,16.48
2023-03-22T14:57:13.388Z,16.45
2023-03-22T14:59:42.910Z,16.39
2023-03-22T15:02:13.477Z,16.35
2023-03-22T15:04:42.017Z,16.35
2023-03-22T15:07:10.575Z,16.30
2023-03-22T15:09:38.003Z,16.32
2023-03-22T15:12:06.190Z,16.30
2023-03-22T15:14:34.918Z,16.17
2023-03-22T15:17:02.490Z,16.10
2023-03-22T15:19:34.281Z,16.04
2023-03-22T15:22:04.657Z,15.95
2023-03-22T15:24:35.055Z,15.89
2023-03-22T15:27:03.722Z,15.86
2023-03-22T15:29:36.432Z,15.86
2023-03-22T15:32:04.992Z,15.83
2023-03-22T15:34:33.831Z,15.78
2023-03-22T15:37:02.116Z,15.75
2023-03-22T15:39:33.560Z,15.74
2023-03-22T15:42:03.910Z,15.71
2023-03-22T15:44:33.540Z,15.62
2023-03-22T15:47:09.568Z,15.61
2023-03-22T15:49:39.156Z,15.65
2023-03-22T15:52:10.035Z,15.65
2023-03-22T15:54:41.635Z,15.69
2023-03-22T15:57:11.465Z,15.70
2023-03-22T15:59:42.024Z,15.74
2023-03-22T16:02:18.445Z,15.70
2023-03-22T16:04:46.202Z,15.75
2023-03-22T16:07:13.551Z,15.76
2023-03-22T16:09:40.758Z,15.77
2023-03-22T16:12:11.119Z,15.78
2023-03-22T16:14:40.113Z,15.79
2023-03-22T16:17:09.571Z,15.81
2023-03-22T16:19:37.393Z,15.78
2023-03-22T16:22:05.411Z,15.77
2023-03-22T16:24:32.755Z,15.81
2023-03-22T16:27:00.298Z,15.84
2023-03-22T16:29:27.873Z,15.88
2023-03-22T16:31:56.264Z,15.89
2023-03-22T16:34:24.551Z,15.89
2023-03-22T16:36:52.125Z,15.83
2023-03-22T16:39:19.882Z,15.82
2023-03-22T16:41:47.220Z,15.83
2023-03-22T16:44:18.105Z,15.78
2023-03-22T16:46:46.116Z,15.75
2023-03-22T16:49:13.658Z,15.74
2023-03-22T16:51:41.156Z,15.71
2023-03-22T16:54:10.577Z,15.70
2023-03-22T16:56:37.936Z,15.69
2023-03-22T16:59:05.544Z,15.64
2023-03-22T17:01:33.342Z,15.60
2023-03-22T17:04:01.324Z,15.59
2023-03-22T17:06:34.994Z,15.53
2023-03-22T17:09:02.515Z,15.49
2023-03-22T17:11:30.249Z,15.44
2023-03-22T17:14:01.174Z,15.38
2023-03-22T17:16:29.491Z,15.31
2023-03-22T17:18:57.803Z,15.25
2023-03-22T17:21:25.063Z,15.25
2023-03-22T17:23:52.227Z,15.21
2023-03-22T17:26:19.393Z,15.20
2023-03-22T17:28:46.976Z,15.21
2023-03-22T17:31:15.122Z,15.21
2023-03-22T17:33:42.389Z,15.18
2023-03-22T17:36:10.932Z,15.16
2023-03-22T17:41:07.070Z,15.12
2023-03-22T17:43:34.466Z,15.11
2023-03-22T17:46:49.719Z,15.07
2023-03-22T17:48:48.775Z,15.02
2023-03-22T17:51:16.246Z,14.96
2023-03-22T17:54:27.130Z,14.97
2023-03-22T17:57:01.141Z,14.95
2023-03-22T17:59:17.806Z,14.92
2023-03-22T18:01:45.276Z,14.86
2023-03-22T18:04:12.684Z,14.84
2023-03-22T18:06:39.975Z,14.81
2023-03-22T18:09:07.277Z,14.79
2023-03-22T18:11:34.617Z,14.77
2023-03-22T18:14:13.844Z,14.75
2023-03-22T18:16:52.695Z,14.72
2023-03-22T18:19:21.146Z,14.70
2023-03-22T18:21:52.553Z,14.70
2023-03-22T18:24:19.800Z,14.69
2023-03-22T18:27:04.969Z,14.69
2023-03-22T18:29:33.990Z,14.63
2023-03-22T18:32:12.203Z,14.63
2023-03-22T18:34:45.652Z,14.63
2023-03-22T18:37:13.901Z,14.62
2023-03-22T18:40:24.471Z,14.58
2023-03-22T18:42:41.105Z,14.54
2023-03-22T18:45:16.244Z,14.57
2023-03-22T18:47:44.082Z,14.55
2023-03-22T18:50:12.859Z,14.56
2023-03-22T18:55:29.831Z,14.54
2023-03-22T18:58:03.291Z,14.52
2023-03-22T19:00:30.783Z,14.52
2023-03-22T19:02:58.151Z,14.49
2023-03-22T19:05:25.973Z,14.49
2023-03-22T19:08:14.542Z,14.52
2023-03-22T19:10:40.914Z,14.52
2023-03-22T19:13:08.230Z,14.53
2023-03-22T19:15:46.240Z,14.50
2023-03-22T19:18:19.021Z,14.43
2023-03-22T19:23:16.521Z,14.36
2023-03-22T19:25:43.789Z,14.29
2023-03-22T19:28:11.118Z,14.26
2023-03-22T19:30:38.529Z,14.21
2023-03-22T19:33:30.088Z,14.20
2023-03-22T19:35:53.349Z,14.19
2023-03-22T19:38:21.037Z,14.20
2023-03-22T19:41:33.564Z,14.21
2023-03-22T19:43:38.398Z,14.21
2023-03-22T19:46:10.026Z,14.25
2023-03-22T19:48:37.594Z,14.22
2023-03-22T19:51:05.020Z,14.22
2023-03-22T19:54:12.178Z,14.21
2023-03-22T19:56:19.744Z,14.20
2023-03-22T19:58:47.446Z,14.18
2023-03-22T20:01:14.784Z,14.22
2023-03-22T20:03:43.734Z,14.27
2023-03-22T20:06:11.735Z,14.25
2023-03-22T20:08:39.312Z,14.20
2023-03-22T20:11:15.110Z,14.19
2023-03-22T20:13:53.173Z,14.10
2023-03-22T20:16:23.610Z,14.09
2023-03-22T20:18:50.718Z,14.11
2023-03-22T20:21:18.210Z,14.08
2023-03-22T20:23:45.334Z,14.08
2023-03-22T20:26:12.532Z,14.07
2023-03-22T20:28:39.927Z,14.07
2023-03-22T20:31:08.705Z,14.11
2023-03-22T20:33:36.901Z,14.15
2023-03-22T20:36:04.607Z,14.17
2023-03-22T20:38:32.226Z,14.17
2023-03-22T20:41:01.197Z,14.12
2023-03-22T20:43:28.712Z,14.12
2023-03-22T20:45:56.240Z,14.11
2023-03-22T20:48:23.923Z,14.04
2023-03-22T20:50:52.606Z,14.03
2023-03-22T20:53:19.957Z,14.02
2023-03-22T20:55:48.869Z,14.00
2023-03-22T20:58:17.829Z,14.01
2023-03-22T21:00:45.840Z,14.00
2023-03-22T21:03:14.033Z,14.03
2023-03-22T21:05:42.531Z,14.05
2023-03-22T21:08:10.845Z,14.07
2023-03-22T21:10:38.299Z,14.05
2023-03-22T21:13:06.306Z,14.04
2023-03-22T21:15:33.860Z,14.05
2023-03-22T21:18:01.088Z,14.05
2023-03-22T21:20:32.740Z,14.03
2023-03-22T21:23:00.614Z,14.05
2023-03-22T21:25:31.144Z,14.05
2023-03-22T21:27:58.415Z,14.06
2023-03-22T21:30:26.500Z,14.07
2023-03-22T21:32:53.662Z,14.07
2023-03-22T21:35:22.009Z,14.07
2023-03-22T21:37:49.325Z,14.03
2023-03-22T21:40:22.287Z,13.99
2023-03-22T21:42:54.496Z,13.98
2023-03-22T21:45:21.943Z,13.99
2023-03-22T21:47:54.002Z,13.99
2023-03-22T21:50:22.112Z,14.03
2023-03-22T21:52:49.351Z,14.06
2023-03-22T21:55:19.074Z,14.06
2023-03-22T21:57:46.244Z,14.10
2023-03-22T22:00:19.927Z,14.11
2023-03-22T22:02:48.759Z,14.12
2023-03-22T22:05:18.706Z,14.12
2023-03-22T22:07:48.014Z,14.11
2023-03-22T22:10:15.701Z,14.14
2023-03-22T22:12:42.949Z,14.16
2023-03-22T22:15:10.502Z,14.18
2023-03-22T22:17:37.680Z,14.20
2023-03-22T22:20:11.987Z,14.19
2023-03-22T22:22:41.651Z,14.20
2023-03-22T22:25:10.914Z,14.22
2023-03-22T22:27:38.541Z,14.27
2023-03-22T22:30:07.475Z,14.27
2023-03-22T22:32:36.661Z,14.27
2023-03-22T22:35:04.062Z,14.22
2023-03-22T22:37:31.561Z,14.20
2023-03-22T22:39:58.982Z,14.20
2023-03-22T22:42:26.126Z,14.17
2023-03-22T22:44:53.508Z,14.17
2023-03-22T22:47:20.671Z,14.10
2023-03-22T22:49:48.221Z,14.10
2023-03-22T22:52:15.893Z,14.14
2023-03-22T22:54:43.093Z,14.13
2023-03-22T22:57:10.541Z,14.13
2023-03-22T22:59:37.776Z,14.13
2023-03-22T23:02:04.894Z,14.15
2023-03-22T23:04:32.487Z,14.14
2023-03-22T23:06:59.606Z,14.07
2023-03-22T23:09:27.720Z,14.03
2023-03-22T23:11:55.770Z,14.06
2023-03-22T23:14:30.722Z,13.96
2023-03-22T23:16:59.330Z,13.94
2023-03-22T23:19:27.880Z,13.93
2023-03-22T23:22:03.580Z,13.92
2023-03-22T23:24:31.404Z,13.89
2023-03-22T23:26:59.819Z,13.87
2023-03-22T23:29:27.565Z,13.90
2023-03-22T23:31:54.596Z,13.89
2023-03-22T23:34:22.583Z,13.91
2023-03-22T23:36:50.290Z,13.88
2023-03-22T23:39:19.081Z,13.88
2023-03-22T23:41:46.907Z,13.88
2023-03-22T23:44:14.316Z,13.86
2023-03-22T23:46:42.298Z,13.84
2023-03-22T23:49:09.649Z,13.83
2023-03-22T23:51:38.594Z,13.85
2023-03-22T23:54:06.823Z,13.85
2023-03-22T23:56:33.916Z,13.80
2023-03-22T23:59:01.737Z,13.76
